'tomaso' - 'Tomaso Greksák'

Prelezy

<< < 1 2345 > >>
Spolu 1392 v 14 stránkach.
. Cesta Obtiažnosť Štýl Oblasť Dátum Body  
1 Y´pas de P qui Compte 7C Solo Fontainebleau 18.04.2018 900
2 Tostaky (debout) 8A Solo Fontainebleau 17.04.2018 1000
3 Haka 7A+ Solo Fontainebleau 16.04.2018 750
4 Lullaby 7A+ Solo Fontainebleau 16.04.2018 750
5 Magic Tree (assis) 7B Solo (2) Fontainebleau 13.04.2018 800
6 Magic Three 7A Flash Fontainebleau 13.04.2018 700
7 Minilithe 7A Flash Fontainebleau 13.04.2018 700
8 Les Conquistadores direct 7B+ Solo Fontainebleau 12.04.2018 850
9 Iceberg raccourci 7A+ Solo Fontainebleau 07.04.2018 750
10 l'Anthracite (assis) 7A+ Solo Fontainebleau 05.04.2018 750
11 l'Anthracite 7A Solo Fontainebleau 05.04.2018 700
12 Le Grain de beauté 6C+ Solo Fontainebleau 05.04.2018 650
13 Je Broie du Noir (direct) 7A+ Solo Fontainebleau 05.04.2018 750
14 Ernie 7b+ OS Leonidio 09.03.2018 850
15 Parahorisi 6b+ OS Leonidio 08.03.2018 550
16 Tsibouri ext. 7a OS Leonidio 08.03.2018 700
17 Bread and Salt 7C OS Leonidio 08.03.2018 900
18 Diet Dope 7b OS Leonidio 07.03.2018 800
19 Drop City Direct 7C OS Leonidio 06.03.2018 900
20 Speckschüttel Dyno 7c+ OS Leonidio 06.03.2018 950
21 Glamour on the Rock 6a+ OS Leonidio 06.03.2018 450
22 Tufatango 6c OS Leonidio 06.03.2018 600
23 Chuck Notis Ext 7c OS Leonidio 06.03.2018 900
24 Humidity Lesson 7c OS Leonidio 06.03.2018 900
25 Bonobo 7b+ OS Leonidio 04.03.2018 850
26 Chipotle 7c OS Leonidio 04.03.2018 900
27 Autopsia 7b+ OS Leonidio 04.03.2018 850
28 15 snežných opíc 7C Solo Malé skalky - Chtelnica 17.02.2018 900
29 Drive 7C Solo Rozbehy 11.02.2018 900
30 Superfet 7A+ Flash Malé skalky - Chtelnica 10.02.2018 750
31 Mechanický bublifuk turbo 7C Solo Malé skalky - Chtelnica 10.02.2018 900
32 Ópium 7B+ Solo Malé skalky - Chtelnica 10.02.2018 850
33 Bubba Butt Buster V11 Solo (4) Bishop - Happy Boulders 25.01.2018 1000
34 The Shining sit V11 Solo Bishop - Happy Boulders 25.01.2018 1000
35 Haroun and the Sea of Stories 8A Solo Bishop - Buttermilks 20.01.2018 1000
36 Stained Glass V10 Solo Bishop - Buttermilks 20.01.2018 950
37 The Shining V9 Solo Bishop - Happy Boulders 19.01.2018 900
38 King Pin Low V9 Solo (2) Bishop - Buttermilks 17.01.2018 900
39 Fly Boy Sit 7B+ Flash Bishop - Buttermilks 17.01.2018 850
40 The Gleaner 7A+ Solo Bishop - Happy Boulders 16.01.2018 750
41 Slave to the Grind V9 Flash Bishop - Happy Boulders 15.01.2018 900
42 Sharma traverse V10 Solo Bishop - Buttermilks 14.01.2018 950
43 Dragon Lili V7 Solo Red Rocks - First & Second Pullout 11.01.2018 775
44 Ultra Violet V9 Solo Red rocks - Calico Basin 10.01.2018 900
45 Progressive Guy V10 Solo Red rocks - Calico Basin 07.01.2018 950
46 Bachar Problem V7 Solo (3) Red Rocks 07.01.2018 775
47 Getaway V7 Flash Red Rocks 07.01.2018 775
48 Barracuda V10 Solo Moab - Big Bend 04.01.2018 950
49 Arete Right Side V3 Flash Moab - Big Bend 04.01.2018 450
50 Poon V9 Solo Joes Valley - New Joes 01.01.2018 900
51 Tang V5 Flash Joes Valley - New Joes 01.01.2018 625
52 Gatorade V5 Flash Joes Valley - New Joes 01.01.2018 625
53 Playtime is over V9 Solo Joes Valley - New Joes 31.12.2017 900
54 Nerve damage V6 Solo Joes Valley - New Joes 31.12.2017 675
55 Snake eyes V2 Flash Joes Valley - New Joes 31.12.2017 300
56 Roll the dice V5 Flash Joes Valley - New Joes 31.12.2017 625
57 Reading rainbow V5 Flash Joes Valley - New Joes 31.12.2017 625
58 Bad Genes V3 Flash Joes Valley - New Joes 31.12.2017 450
59 Pimpin Jeans V4 Flash Joes Valley - New Joes 31.12.2017 525
60 Sticky Jeans V2 Flash Joes Valley - New Joes 31.12.2017 300
61 Bubbatronic V9 Solo Joes Valley - New Joes 31.12.2017 900
62 Planets of the Apes V7 Flash Joes Valley - New Joes 31.12.2017 775
63 Chips V7 Flash Joes Valley - New Joes 31.12.2017 775
64 Jungle Book SD 8A Solo Cresciano 20.12.2017 1000
65 Bergsteigerkante 7A+ Solo Cresciano 19.12.2017 750
66 Il brillo parlante 7B+/7C Solo Chironico 18.12.2017 875
67 Walk the line stand 7C+ Solo Chironico 17.12.2017 950
68 La Totalité de l´Autre Toit 8A Solo Fontainebleau 21.11.2017 1000
69 Total Éclipse 8A+ Solo Fontainebleau 21.11.2017 1050
70 Ric Rac 7A Solo Fontainebleau 20.11.2017 700
71 Pokemon 7B+ Solo Fontainebleau 20.11.2017 850
72 Sa Pelle au Logis 7A Flash Fontainebleau 20.11.2017 700
73 l´Étrave á Sucre 7B+ Solo Fontainebleau 19.11.2017 850
74 Flipper assis 7A+ Solo Fontainebleau 13.11.2017 750
75 Dessinateur 7A+ Solo Fontainebleau 07.11.2017 750
76 Petit Tas Petit 7B+ Solo Fontainebleau 06.11.2017 850
77 le Proueptologue 7B Solo Fontainebleau 06.11.2017 800
78 Michel-Ange 7C Solo Fontainebleau 06.11.2017 900
79 le Krill 7A Flash Fontainebleau 06.11.2017 700
80 Maxx 7C+ Solo Fontainebleau 05.11.2017 950
81 Métamorphose 7B+ Solo Fontainebleau 03.11.2017 850
82 Métaphore 7B Solo Fontainebleau 03.11.2017 800
83 Moralisator 7A Flash Fontainebleau 03.11.2017 700
84 JCVD 7B+ Solo (2) Fontainebleau 02.11.2017 850
85 Boby (assis) 7A+ Solo (2) Fontainebleau 31.10.2017 750
86 Gengis Khan 7B+ Solo Fontainebleau 31.10.2017 850
87 le Porte du Temps 7A Flash Fontainebleau 31.10.2017 700
88 le Dragon de Komodo 7A+ Solo Fontainebleau 31.10.2017 750
89 le Sous-Plomb (direct) 7A Flash Fontainebleau 30.10.2017 700
90 le Bowling 7A+ Solo Fontainebleau 30.10.2017 750
91 l´Americain 7B Flash Fontainebleau 30.10.2017 800
92 Flipper assis droite 7A Flash Fontainebleau 30.10.2017 700
93 Pince-mi, Pince-moi 7B+ Solo Cuvier 25.07.2017 850
94 Compression Zip du Fond 7C+ Flash Fontainebleau 23.07.2017 950
95 Plumes au Vent 7A Solo Fontainebleau 23.07.2017 700
96 le Dagon de Komodo (droite) 7A+ Solo (2) Fontainebleau 23.07.2017 750
97 Makhnovtchina 7C Solo Fontainebleau 23.07.2017 900
98 L'?il de la Sybille 7C+ Solo Fontainebleau 21.07.2017 950
99 17-04 Orange Sheriff 7C Solo Zillertal - Ginzling Wald 08.07.2017 900
100 L'aquarium 7B+ Solo Chironico 05.07.2017 850
<< < 1 2345 > >>
Spolu 1392 v 14 stránkach.